Time;durP1;ratioP1;P1;durP2;ratioP2;P2;SDS_P1;SDS_P2;PMS_P1;PMS_P2;Temp;Humidity;BMP_temperature;BMP_pressure;BME280_temperature;BME280_humidity;BME280_pressure;Samples;Min_cycle;Max_cycle;Signal;HPM_P1;HPM_P2
2022/08/23 00:01:21;;;;;;;0.55;0.38;;;19.60;99.90;;;;;;5004124;28;20401;-69
2022/08/23 00:03:48;;;;;;;0.00;0.00;;;19.60;99.90;;;;;;5006770;28;20042;-69
2022/08/23 00:06:14;;;;;;;0.28;0.28;;;19.70;99.90;;;;;;5008285;28;20088;-69
2022/08/23 00:08:40;;;;;;;0.20;0.20;;;19.60;99.90;;;;;;4989740;28;20050;-69
2022/08/23 00:11:22;;;;;;;0.00;0.00;;;19.50;99.90;;;;;;4998591;28;20045;-70
2022/08/23 00:13:48;;;;;;;0.00;0.00;;;19.50;99.90;;;;;;5007037;28;20061;-69
2022/08/23 00:16:13;;;;;;;0.45;0.45;;;19.50;99.90;;;;;;4999997;28;20118;-69
2022/08/23 00:18:40;;;;;;;1.10;0.30;;;19.60;99.90;;;;;;4991788;28;20056;-69
2022/08/23 00:21:05;;;;;;;0.25;0.25;;;19.50;99.90;;;;;;5006861;28;20559;-69
2022/08/23 00:23:31;;;;;;;1.52;0.60;;;19.50;99.90;;;;;;5006182;28;20057;-70
2022/08/23 00:25:56;;;;;;;1.15;0.65;;;19.50;99.90;;;;;;4991382;28;20615;-70
2022/08/23 00:28:22;;;;;;;0.10;0.10;;;19.50;99.90;;;;;;5004199;28;20445;-70
2022/08/23 00:30:47;;;;;;;0.45;0.45;;;19.50;99.90;;;;;;5006859;28;20118;-69
2022/08/23 00:33:13;;;;;;;0.10;0.10;;;19.50;99.90;;;;;;5001175;28;20041;-70
2022/08/23 00:35:39;;;;;;;0.00;0.00;;;19.50;99.90;;;;;;5002331;28;20042;-69
2022/08/23 00:38:04;;;;;;;0.22;0.22;;;19.50;99.90;;;;;;5002925;28;20541;-70
2022/08/23 00:40:30;;;;;;;0.10;0.10;;;19.50;99.90;;;;;;4995213;28;20053;-70
2022/08/23 00:48:46;;;;;;;0.20;0.20;;;19.50;99.90;;;;;;5001007;28;20059;-70
2022/08/23 00:51:24;;;;;;;0.08;0.08;;;19.50;99.90;;;;;;5007321;28;20041;-70
2022/08/23 00:53:54;;;;;;;0.10;0.10;;;19.50;99.90;;;;;;4992744;28;20088;-69
2022/08/23 00:56:23;;;;;;;0.20;0.20;;;19.50;99.90;;;;;;5002694;28;20065;-69
2022/08/23 00:58:49;;;;;;;0.20;0.20;;;19.50;99.90;;;;;;5001038;28;20054;-70
2022/08/23 01:01:15;;;;;;;0.10;0.10;;;19.50;99.90;;;;;;5002554;28;20485;-70
2022/08/23 01:03:45;;;;;;;0.10;0.10;;;19.40;99.90;;;;;;5011252;28;20092;-69
2022/08/23 01:06:31;;;;;;;0.10;0.10;;;19.50;99.90;;;;;;5009603;28;20100;-70
2022/08/23 01:09:04;;;;;;;0.10;0.10;;;19.40;99.90;;;;;;5002088;28;20125;-70
2022/08/23 01:11:44;;;;;;;2.25;1.40;;;19.40;99.90;;;;;;5010300;28;20129;-70
2022/08/23 01:14:43;;;;;;;0.32;0.32;;;19.40;99.90;;;;;;5000124;28;20109;-69
2022/08/23 01:17:14;;;;;;;0.25;0.25;;;19.30;99.90;;;;;;4993377;28;20076;-70
2022/08/23 01:19:46;;;;;;;0.25;0.25;;;19.30;99.90;;;;;;4992664;28;20615;-70
2022/08/23 01:22:33;;;;;;;0.25;0.25;;;19.30;99.90;;;;;;5002965;28;20046;-69
2022/08/23 01:25:00;;;;;;;0.10;0.10;;;19.30;99.90;;;;;;4994322;28;20490;-70
2022/08/23 01:27:26;;;;;;;0.10;0.10;;;19.30;99.90;;;;;;5005592;28;20504;-70
2022/08/23 01:29:52;;;;;;;0.28;0.28;;;19.30;99.90;;;;;;5010235;28;20042;-69
2022/08/23 01:32:19;;;;;;;0.03;0.03;;;19.30;99.90;;;;;;5001779;28;20033;-70
2022/08/23 01:34:44;;;;;;;0.20;0.20;;;19.20;99.90;;;;;;4995716;28;20448;-69
2022/08/23 01:37:10;;;;;;;0.17;0.17;;;19.20;99.90;;;;;;5008262;28;20049;-70
2022/08/23 01:39:36;;;;;;;4.57;0.55;;;19.20;99.90;;;;;;5010010;28;20030;-70
2022/08/23 01:42:02;;;;;;;0.00;0.00;;;19.20;99.90;;;;;;5008292;28;20112;-70
2022/08/23 01:44:27;;;;;;;0.40;0.40;;;19.20;99.90;;;;;;4992743;28;20050;-70
2022/08/23 01:46:53;;;;;;;0.10;0.10;;;19.20;99.90;;;;;;5010370;28;20129;-70
2022/08/23 01:49:19;;;;;;;0.25;0.25;;;19.10;99.90;;;;;;5010505;28;20046;-70
2022/08/23 01:51:45;;;;;;;0.10;0.10;;;19.10;99.90;;;;;;4998402;28;20136;-70
2022/08/23 01:54:11;;;;;;;0.00;0.00;;;19.10;99.90;;;;;;5001619;28;20077;-70
2022/08/23 01:56:39;;;;;;;4.32;1.70;;;19.10;99.90;;;;;;5010588;28;20389;-70
2022/08/23 01:59:06;;;;;;;0.52;0.40;;;19.10;99.90;;;;;;5006070;28;20053;-69
2022/08/23 02:01:33;;;;;;;0.00;0.00;;;19.10;99.90;;;;;;4996927;28;20056;-70
2022/08/23 02:03:58;;;;;;;0.20;0.20;;;19.10;99.90;;;;;;4996053;28;20545;-70
2022/08/23 02:06:24;;;;;;;0.20;0.20;;;19.00;99.90;;;;;;5009086;28;20041;-70
2022/08/23 02:09:02;;;;;;;0.00;0.00;;;19.00;99.90;;;;;;5007391;28;20462;-70
2022/08/23 02:11:36;;;;;;;0.00;0.00;;;19.00;99.90;;;;;;5000923;28;20069;-70
2022/08/23 02:14:07;;;;;;;1.13;1.05;;;19.00;99.90;;;;;;5008005;28;20041;-70
2022/08/23 02:16:37;;;;;;;0.00;0.00;;;19.00;99.90;;;;;;5004347;28;20034;-70
2022/08/23 02:19:05;;;;;;;0.35;0.35;;;19.00;99.90;;;;;;5006891;28;20056;-70
2022/08/23 02:21:31;;;;;;;4.20;1.17;;;19.00;99.90;;;;;;5007186;28;20046;-69
2022/08/23 02:24:09;;;;;;;0.10;0.10;;;18.90;99.90;;;;;;5003261;28;20046;-70
2022/08/23 02:26:36;;;;;;;0.10;0.10;;;18.90;99.90;;;;;;4994753;28;20096;-70
2022/08/23 02:29:02;;;;;;;1.17;0.85;;;19.00;99.90;;;;;;5009008;28;20088;-70
2022/08/23 02:31:28;;;;;;;1.90;1.05;;;18.90;99.90;;;;;;5008396;28;20049;-70
2022/08/23 02:33:53;;;;;;;0.00;0.00;;;18.90;99.90;;;;;;4992836;28;20046;-70
2022/08/23 02:36:19;;;;;;;0.00;0.00;;;18.90;99.90;;;;;;5009280;28;20052;-70
2022/08/23 02:38:45;;;;;;;0.00;0.00;;;18.90;99.90;;;;;;5009324;28;20070;-70
2022/08/23 02:41:10;;;;;;;0.20;0.20;;;18.90;99.90;;;;;;4998493;28;20043;-70
2022/08/23 02:43:36;;;;;;;0.10;0.10;;;18.80;99.90;;;;;;5005176;28;20049;-70
2022/08/23 02:46:05;;;;;;;0.43;0.43;;;18.90;99.90;;;;;;4994999;28;20042;-70
2022/08/23 02:48:32;;;;;;;0.13;0.13;;;18.80;99.90;;;;;;4989780;28;20046;-70
2022/08/23 02:50:59;;;;;;;2.72;2.03;;;18.90;99.90;;;;;;4999037;28;20584;-70
2022/08/23 02:53:25;;;;;;;0.05;0.05;;;18.90;99.90;;;;;;5008402;28;20648;-70
2022/08/23 02:55:51;;;;;;;0.30;0.30;;;18.90;99.90;;;;;;5005002;28;20117;-70
2022/08/23 02:58:16;;;;;;;0.10;0.10;;;18.80;99.90;;;;;;4990539;28;20457;-70
2022/08/23 03:00:46;;;;;;;0.35;0.35;;;18.90;99.90;;;;;;5006758;28;20401;-70
2022/08/23 03:03:12;;;;;;;2.35;1.02;;;18.80;99.90;;;;;;4995780;28;20124;-70
2022/08/23 03:05:38;;;;;;;0.08;0.00;;;18.80;99.90;;;;;;4990597;28;20576;-70
2022/08/23 03:08:04;;;;;;;0.43;0.43;;;18.80;99.90;;;;;;5001462;28;20210;-69
2022/08/23 03:10:30;;;;;;;0.35;0.20;;;18.90;99.90;;;;;;5003735;28;20042;-70
2022/08/23 03:12:56;;;;;;;0.57;0.57;;;18.80;99.90;;;;;;4997220;28;20066;-70
2022/08/23 03:15:22;;;;;;;0.20;0.20;;;18.80;99.90;;;;;;4999593;28;20100;-70
2022/08/23 03:17:48;;;;;;;0.40;0.40;;;18.80;99.90;;;;;;5008860;28;20121;-69
2022/08/23 03:20:14;;;;;;;0.13;0.13;;;18.80;99.90;;;;;;5004099;28;20572;-70
2022/08/23 03:22:39;;;;;;;0.35;0.35;;;18.70;99.90;;;;;;5000462;28;20053;-69
2022/08/23 03:25:06;;;;;;;0.20;0.20;;;18.70;99.90;;;;;;5008097;28;20045;-70
2022/08/23 03:27:32;;;;;;;0.30;0.30;;;18.70;99.90;;;;;;5005180;28;20135;-70
2022/08/23 03:29:57;;;;;;;0.10;0.10;;;18.70;99.90;;;;;;4995208;28;20069;-70
2022/08/23 03:32:23;;;;;;;2.13;1.48;;;18.70;99.90;;;;;;4992673;28;20811;-70
2022/08/23 03:34:48;;;;;;;0.52;0.22;;;18.60;99.90;;;;;;4994574;28;20417;-70
2022/08/23 03:37:15;;;;;;;1.23;0.85;;;18.60;99.90;;;;;;4996857;28;20050;-70
2022/08/23 03:39:40;;;;;;;1.23;0.75;;;18.60;99.90;;;;;;5003390;28;20080;-70
2022/08/23 03:42:06;;;;;;;0.10;0.10;;;18.60;99.90;;;;;;5004792;28;20486;-70
2022/08/23 03:44:32;;;;;;;0.47;0.47;;;18.50;99.90;;;;;;5008462;28;20041;-70
2022/08/23 03:46:58;;;;;;;0.10;0.10;;;18.50;99.90;;;;;;4993716;28;20130;-70
2022/08/23 03:49:23;;;;;;;0.15;0.15;;;18.50;99.90;;;;;;5006800;28;20708;-70
2022/08/23 03:51:49;;;;;;;1.98;0.85;;;18.40;99.90;;;;;;5001628;28;20509;-70
2022/08/23 03:54:15;;;;;;;1.85;0.25;;;18.40;99.90;;;;;;4996667;28;20054;-70
2022/08/23 03:56:52;;;;;;;0.10;0.10;;;18.40;99.90;;;;;;4990486;28;20045;-70
2022/08/23 03:59:18;;;;;;;0.35;0.35;;;18.30;99.90;;;;;;5005561;28;20057;-70
2022/08/23 04:01:43;;;;;;;0.00;0.00;;;18.40;99.90;;;;;;4991857;28;20050;-70
2022/08/23 04:04:09;;;;;;;0.85;0.85;;;18.30;99.90;;;;;;5006804;28;20054;-70
2022/08/23 04:06:35;;;;;;;0.45;0.45;;;18.30;99.90;;;;;;5008029;28;20658;-70
2022/08/23 04:09:01;;;;;;;0.00;0.00;;;18.30;99.90;;;;;;4997073;28;20924;-70
2022/08/23 04:11:27;;;;;;;0.00;0.00;;;18.30;99.90;;;;;;5004790;28;20061;-70
2022/08/23 04:13:53;;;;;;;0.00;0.00;;;18.20;99.90;;;;;;5000134;28;20069;-70
2022/08/23 04:16:18;;;;;;;0.13;0.13;;;18.20;99.90;;;;;;4991252;28;20398;-69
2022/08/23 04:18:45;;;;;;;0.10;0.10;;;18.20;99.90;;;;;;4989331;28;20405;-70
2022/08/23 04:21:15;;;;;;;0.08;0.08;;;18.20;99.90;;;;;;4996705;28;20495;-69
2022/08/23 04:23:42;;;;;;;0.75;0.75;;;18.20;99.90;;;;;;5001497;28;20053;-69
2022/08/23 04:26:08;;;;;;;1.02;0.80;;;18.10;99.90;;;;;;4994889;28;20042;-70
2022/08/23 04:28:34;;;;;;;0.30;0.30;;;18.10;99.90;;;;;;5000183;28;20038;-70
2022/08/23 04:31:01;;;;;;;0.00;0.00;;;18.10;99.90;;;;;;4996022;28;20053;-70
2022/08/23 04:33:30;;;;;;;0.10;0.10;;;18.10;99.90;;;;;;5006384;28;20038;-70
2022/08/23 04:35:57;;;;;;;6.00;1.05;;;18.10;99.90;;;;;;4992450;28;20035;-70
2022/08/23 04:38:23;;;;;;;0.43;0.43;;;18.10;99.90;;;;;;4988827;28;20053;-70
2022/08/23 04:43:33;;;;;;;1.10;0.65;;;18.00;99.90;;;;;;5002788;28;20158;-70
2022/08/23 04:45:58;;;;;;;0.63;0.45;;;18.00;99.90;;;;;;4990602;28;20101;-70
2022/08/23 04:48:24;;;;;;;0.13;0.13;;;18.00;99.90;;;;;;5004062;28;20038;-70
2022/08/23 04:50:49;;;;;;;0.25;0.25;;;18.00;99.90;;;;;;5004972;28;20046;-70
2022/08/23 04:53:15;;;;;;;0.10;0.10;;;18.00;99.90;;;;;;4993943;28;20133;-70
2022/08/23 04:55:41;;;;;;;0.13;0.13;;;18.00;99.90;;;;;;4998998;28;20038;-71
2022/08/23 04:58:07;;;;;;;0.40;0.40;;;18.00;99.90;;;;;;5007663;28;20054;-70
2022/08/23 05:00:32;;;;;;;0.00;0.00;;;18.00;99.90;;;;;;4999235;28;20046;-70
2022/08/23 05:02:58;;;;;;;0.47;0.35;;;18.00;99.90;;;;;;4998351;28;20100;-70
2022/08/23 05:05:26;;;;;;;0.30;0.30;;;18.10;99.90;;;;;;4995710;28;20037;-70
2022/08/23 05:07:52;;;;;;;0.20;0.20;;;18.10;99.90;;;;;;4988314;28;20065;-70
2022/08/23 05:10:17;;;;;;;1.40;1.30;;;18.10;99.90;;;;;;4994799;28;20894;-70
2022/08/23 05:12:43;;;;;;;1.65;1.10;;;18.10;99.90;;;;;;5006710;28;20041;-70
2022/08/23 05:15:10;;;;;;;0.40;0.40;;;18.10;99.90;;;;;;4998118;28;20046;-70
2022/08/23 05:17:36;;;;;;;0.00;0.00;;;18.20;99.90;;;;;;4987866;28;20054;-70
2022/08/23 05:20:04;;;;;;;0.32;0.32;;;18.20;99.90;;;;;;4987664;28;20042;-70
2022/08/23 05:22:33;;;;;;;0.10;0.10;;;18.20;99.90;;;;;;4990005;28;20461;-70
2022/08/23 05:24:58;;;;;;;0.20;0.20;;;18.30;99.90;;;;;;5005989;28;20046;-70
2022/08/23 05:27:24;;;;;;;0.00;0.00;;;18.40;99.90;;;;;;4993682;28;20054;-70
2022/08/23 05:29:53;;;;;;;0.28;0.28;;;18.40;99.90;;;;;;4994211;28;20038;-70
2022/08/23 05:32:19;;;;;;;0.20;0.20;;;18.40;99.90;;;;;;4987715;28;20054;-70
2022/08/23 05:34:45;;;;;;;0.15;0.15;;;18.50;99.90;;;;;;5005974;28;20387;-70
2022/08/23 05:37:11;;;;;;;1.17;0.50;;;18.60;99.90;;;;;;4997592;28;20101;-70
2022/08/23 05:39:36;;;;;;;0.80;0.57;;;18.60;99.90;;;;;;4997936;28;20069;-70
2022/08/23 05:42:03;;;;;;;0.20;0.20;;;18.60;99.90;;;;;;5003721;28;20080;-70
2022/08/23 05:44:29;;;;;;;0.28;0.25;;;18.60;99.90;;;;;;4996198;28;20046;-70
2022/08/23 05:46:54;;;;;;;0.10;0.10;;;18.60;99.90;;;;;;5007753;28;20972;-70
2022/08/23 05:49:20;;;;;;;3.42;1.23;;;18.70;99.90;;;;;;4994191;28;20041;-70
2022/08/23 05:51:45;;;;;;;0.20;0.20;;;18.70;99.90;;;;;;5009704;28;20433;-70
2022/08/23 05:54:11;;;;;;;0.47;0.47;;;18.70;99.90;;;;;;5010088;28;20148;-70
2022/08/23 05:56:41;;;;;;;0.10;0.10;;;18.70;99.90;;;;;;5000105;28;20583;-70
2022/08/23 05:59:09;;;;;;;0.38;0.38;;;18.80;99.90;;;;;;4996269;28;20060;-70
2022/08/23 06:01:35;;;;;;;0.80;0.80;;;18.90;99.90;;;;;;4997861;28;20095;-70
2022/08/23 06:04:04;;;;;;;1.85;1.58;;;18.90;99.90;;;;;;5000822;28;20045;-70
2022/08/23 06:06:30;;;;;;;0.10;0.10;;;18.90;99.90;;;;;;4991867;28;20469;-70
2022/08/23 06:08:57;;;;;;;0.10;0.10;;;18.90;99.90;;;;;;5010461;28;20073;-70
2022/08/23 06:11:26;;;;;;;0.25;0.25;;;18.90;99.90;;;;;;5009628;28;20077;-70
2022/08/23 06:14:02;;;;;;;0.32;0.25;;;19.00;99.90;;;;;;4992408;28;20141;-70
2022/08/23 06:16:31;;;;;;;4.60;0.63;;;19.10;99.90;;;;;;5003806;28;20058;-70
2022/08/23 06:18:58;;;;;;;0.38;0.38;;;19.10;99.90;;;;;;5010785;28;20053;-70
2022/08/23 06:21:24;;;;;;;0.00;0.00;;;19.10;99.90;;;;;;5007663;28;20048;-70
2022/08/23 06:23:50;;;;;;;2.90;0.65;;;19.10;99.90;;;;;;4992172;28;20133;-70
2022/08/23 06:26:20;;;;;;;0.22;0.22;;;19.10;99.90;;;;;;5006467;28;20711;-70
2022/08/23 06:28:48;;;;;;;0.40;0.40;;;19.20;99.90;;;;;;5003778;28;20034;-70
2022/08/23 06:31:14;;;;;;;0.10;0.10;;;19.20;99.90;;;;;;4995096;28;20065;-70
2022/08/23 06:33:41;;;;;;;0.30;0.22;;;19.20;99.90;;;;;;5006227;28;20100;-70
2022/08/23 06:36:12;;;;;;;0.10;0.10;;;19.20;99.90;;;;;;5007622;28;20138;-70
2022/08/23 06:38:39;;;;;;;0.00;0.00;;;19.20;99.90;;;;;;5001745;28;20034;-70
2022/08/23 06:41:09;;;;;;;0.00;0.00;;;19.30;99.90;;;;;;4994804;28;20585;-71
2022/08/23 06:43:36;;;;;;;0.35;0.30;;;19.40;99.90;;;;;;4992168;28;20073;-71
2022/08/23 06:46:20;;;;;;;0.10;0.10;;;19.40;99.90;;;;;;5003334;28;20061;-71
2022/08/23 06:48:46;;;;;;;0.30;0.30;;;19.50;99.90;;;;;;5008151;28;20132;-71
2022/08/23 06:51:20;;;;;;;0.38;0.38;;;19.50;99.90;;;;;;4999511;28;20125;-70
2022/08/23 06:53:45;;;;;;;0.47;0.47;;;19.60;99.90;;;;;;4992861;28;20093;-71
2022/08/23 06:56:11;;;;;;;0.43;0.43;;;19.80;99.90;;;;;;5005759;28;20445;-70
2022/08/23 06:58:37;;;;;;;0.47;0.47;;;19.80;99.90;;;;;;4994887;28;20054;-71
2022/08/23 07:01:40;;;;;;;0.10;0.10;;;19.80;99.90;;;;;;5006804;28;20507;-71
2022/08/23 07:04:08;;;;;;;1.00;0.88;;;19.80;99.90;;;;;;4996022;28;20260;-71
2022/08/23 07:06:34;;;;;;;0.22;0.22;;;19.90;99.90;;;;;;5008255;28;20071;-71
2022/08/23 07:09:00;;;;;;;0.00;0.00;;;20.00;99.90;;;;;;4996738;28;20046;-71
2022/08/23 07:11:30;;;;;;;0.10;0.10;;;20.10;99.90;;;;;;4997156;28;20517;-71
2022/08/23 07:13:56;;;;;;;0.00;0.00;;;20.20;99.90;;;;;;5008027;28;20038;-71
2022/08/23 07:16:22;;;;;;;0.10;0.10;;;20.20;99.90;;;;;;5005742;28;20041;-71
2022/08/23 07:18:48;;;;;;;0.25;0.25;;;20.20;99.90;;;;;;4997530;28;20044;-70
2022/08/23 07:21:15;;;;;;;0.30;0.30;;;20.30;99.90;;;;;;4995522;28;20114;-70
2022/08/23 07:23:42;;;;;;;0.20;0.10;;;20.30;99.90;;;;;;4997910;28;20061;-71
2022/08/23 07:26:10;;;;;;;0.52;0.52;;;20.30;99.90;;;;;;4996350;28;20053;-71
2022/08/23 07:28:37;;;;;;;0.20;0.20;;;20.30;99.90;;;;;;5007351;28;20494;-71
2022/08/23 07:31:21;;;;;;;0.10;0.10;;;20.40;99.90;;;;;;5008068;28;20048;-71
2022/08/23 07:33:47;;;;;;;0.20;0.20;;;20.40;99.90;;;;;;5009032;28;20038;-71
2022/08/23 07:36:18;;;;;;;0.98;0.38;;;20.50;99.90;;;;;;4990053;28;20548;-71
2022/08/23 07:38:45;;;;;;;0.22;0.22;;;20.60;99.90;;;;;;4989635;28;20046;-71
2022/08/23 07:41:11;;;;;;;0.00;0.00;;;20.60;99.90;;;;;;4990338;28;20406;-71
2022/08/23 07:43:38;;;;;;;0.10;0.10;;;20.70;99.90;;;;;;4995030;28;20042;-71
2022/08/23 07:46:04;;;;;;;0.10;0.10;;;20.80;99.90;;;;;;4992239;28;20039;-71
2022/08/23 07:48:31;;;;;;;0.00;0.00;;;20.80;99.90;;;;;;5001955;28;20406;-71
2022/08/23 07:51:00;;;;;;;0.10;0.10;;;20.90;99.90;;;;;;4992451;28;20128;-72
2022/08/23 07:53:26;;;;;;;0.77;0.50;;;20.90;99.90;;;;;;5002207;28;20045;-72
2022/08/23 07:55:52;;;;;;;0.35;0.35;;;21.00;99.90;;;;;;5002397;28;20053;-71
2022/08/23 07:58:19;;;;;;;0.40;0.05;;;21.20;99.90;;;;;;5005150;28;20055;-71
2022/08/23 08:00:45;;;;;;;0.28;0.28;;;21.20;99.90;;;;;;5001897;28;20481;-71
2022/08/23 08:03:12;;;;;;;0.88;0.75;;;21.40;99.90;;;;;;5001384;28;20049;-71
2022/08/23 08:05:38;;;;;;;0.10;0.10;;;21.50;99.90;;;;;;4999874;28;20042;-71
2022/08/23 08:08:05;;;;;;;0.00;0.00;;;21.60;99.90;;;;;;5003797;28;20041;-72
2022/08/23 08:10:32;;;;;;;0.22;0.20;;;21.70;99.90;;;;;;5004929;28;20181;-72
2022/08/23 08:12:57;;;;;;;0.17;0.17;;;21.80;99.90;;;;;;5006466;28;20121;-72
2022/08/23 08:15:23;;;;;;;1.88;0.28;;;21.80;99.90;;;;;;4995584;28;20045;-71
2022/08/23 08:17:50;;;;;;;0.08;0.08;;;21.90;99.90;;;;;;5000183;28;20050;-72
2022/08/23 08:20:16;;;;;;;0.00;0.00;;;21.90;99.90;;;;;;4999143;28;20042;-71
2022/08/23 08:22:42;;;;;;;0.10;0.10;;;22.00;99.90;;;;;;4994425;28;20230;-72
2022/08/23 08:25:09;;;;;;;0.10;0.10;;;22.00;99.90;;;;;;4990254;28;20046;-70
2022/08/23 08:27:35;;;;;;;0.22;0.22;;;21.90;99.90;;;;;;5001476;28;20046;-71
2022/08/23 08:30:01;;;;;;;0.10;0.10;;;22.00;99.90;;;;;;4997490;28;20405;-71
2022/08/23 08:32:27;;;;;;;0.00;0.00;;;22.10;99.90;;;;;;4996877;28;20409;-72
2022/08/23 08:34:52;;;;;;;0.20;0.20;;;22.20;99.90;;;;;;5007003;28;20045;-72
2022/08/23 08:37:18;;;;;;;0.00;0.00;;;22.30;99.90;;;;;;5004629;28;20497;-72
2022/08/23 08:39:46;;;;;;;0.35;0.30;;;22.30;99.90;;;;;;4991689;28;20046;-72
2022/08/23 08:42:42;;;;;;;0.00;0.00;;;22.30;99.90;;;;;;5004822;28;20089;-72
2022/08/23 08:45:31;;;;;;;0.00;0.00;;;22.30;99.90;;;;;;4987856;28;20490;-72
2022/08/23 08:48:02;;;;;;;0.15;0.15;;;22.30;99.90;;;;;;4986939;28;20121;-72
2022/08/23 08:50:36;;;;;;;0.00;0.00;;;22.40;99.90;;;;;;4989873;28;20038;-72
2022/08/23 08:53:19;;;;;;;1.88;0.32;;;22.50;99.90;;;;;;4993524;28;20050;-72
2022/08/23 08:55:56;;;;;;;0.15;0.15;;;22.60;99.90;;;;;;4988706;28;20046;-72
2022/08/23 08:58:32;;;;;;;0.00;0.00;;;22.80;99.90;;;;;;5000288;28;20054;-72
2022/08/23 09:00:58;;;;;;;3.72;0.40;;;23.00;99.90;;;;;;4989065;28;20060;-72
2022/08/23 09:03:30;;;;;;;0.08;0.08;;;23.10;99.90;;;;;;4988370;28;20594;-72
2022/08/23 09:06:04;;;;;;;0.23;0.23;;;23.20;99.90;;;;;;4986999;28;20054;-72
2022/08/23 09:08:46;;;;;;;0.10;0.10;;;23.40;99.90;;;;;;4988786;28;20042;-72
2022/08/23 09:11:21;;;;;;;0.38;0.38;;;23.50;99.90;;;;;;5002173;28;20053;-72
2022/08/23 09:14:24;;;;;;;0.10;0.10;;;23.90;99.90;;;;;;5008189;28;20196;-72
2022/08/23 09:17:01;;;;;;;0.20;0.20;;;24.50;99.90;;;;;;5000699;28;20466;-70
2022/08/23 09:19:26;;;;;;;0.55;0.52;;;24.90;99.90;;;;;;4990971;28;20100;-70
2022/08/23 09:21:57;;;;;;;0.10;0.10;;;25.30;99.90;;;;;;4992906;28;20050;-70
2022/08/23 09:24:24;;;;;;;0.10;0.10;;;25.60;99.90;;;;;;5007524;28;20050;-70
2022/08/23 09:26:52;;;;;;;0.10;0.10;;;25.60;99.90;;;;;;5001922;28;22227;-70
2022/08/23 09:29:24;;;;;;;0.00;0.00;;;25.40;99.90;;;;;;4989464;28;20050;-70
2022/08/23 09:31:57;;;;;;;0.17;0.17;;;25.20;99.90;;;;;;4999262;28;20406;-70
2022/08/23 09:34:28;;;;;;;2.13;0.30;;;25.30;99.90;;;;;;4990818;28;20038;-70
2022/08/23 09:37:08;;;;;;;0.57;0.55;;;25.80;99.90;;;;;;4996716;28;20408;-70
2022/08/23 09:39:37;;;;;;;0.00;0.00;;;26.20;99.90;;;;;;4993243;28;20038;-70
2022/08/23 09:42:03;;;;;;;0.03;0.03;;;26.40;99.90;;;;;;5000290;28;20062;-71
2022/08/23 09:44:39;;;;;;;0.35;0.35;;;26.20;99.90;;;;;;4999113;28;20482;-70
2022/08/23 09:47:14;;;;;;;0.20;0.20;;;26.30;99.90;;;;;;4991444;28;20109;-70
2022/08/23 09:49:41;;;;;;;0.08;0.05;;;26.40;99.90;;;;;;4999957;28;20132;-71
2022/08/23 09:52:25;;;;;;;0.13;0.13;;;26.60;99.90;;;;;;5011002;28;20053;-70
2022/08/23 09:55:24;;;;;;;0.50;0.50;;;26.70;99.90;;;;;;5009069;28;20045;-70
2022/08/23 09:57:50;;;;;;;0.32;0.17;;;26.70;99.90;;;;;;4991107;28;20054;-71
2022/08/23 10:00:16;;;;;;;1.55;0.43;;;26.80;99.90;;;;;;4990751;28;20107;-70
2022/08/23 10:02:42;;;;;;;0.20;0.17;;;26.70;99.90;;;;;;4991507;28;20061;-70
2022/08/23 10:05:14;;;;;;;0.70;0.70;;;26.90;99.90;;;;;;4990925;28;20045;-70
2022/08/23 10:07:58;;;;;;;0.20;0.20;;;27.10;99.90;;;;;;4991618;28;20052;-70
2022/08/23 10:10:34;;;;;;;0.10;0.10;;;27.30;99.90;;;;;;5004637;28;20034;-70
2022/08/23 10:13:00;;;;;;;0.00;0.00;;;27.60;99.90;;;;;;5003883;28;20666;-70
2022/08/23 10:15:51;;;;;;;0.00;0.00;;;27.70;99.90;;;;;;4995402;28;20046;-70
2022/08/23 10:18:32;;;;;;;2.95;0.60;;;27.70;99.90;;;;;;4991303;28;20049;-70
2022/08/23 10:21:17;;;;;;;0.25;0.25;;;27.90;99.90;;;;;;5002795;28;20124;-70
2022/08/23 10:24:08;;;;;;;0.03;0.03;;;27.90;99.90;;;;;;5009471;28;20057;-70
2022/08/23 10:26:38;;;;;;;7.93;1.45;;;27.80;99.90;;;;;;5009232;28;20038;-70
2022/08/23 10:29:39;;;;;;;1.65;0.68;;;27.90;99.90;;;;;;4990029;28;20464;-71
2022/08/23 10:32:20;;;;;;;0.00;0.00;;;27.70;99.90;;;;;;4991267;28;20048;-70
2022/08/23 10:34:54;;;;;;;0.57;0.17;;;27.50;99.90;;;;;;4989875;28;20593;-70
2022/08/23 10:37:42;;;;;;;0.30;0.17;;;27.50;99.90;;;;;;4990949;28;20046;-70
2022/08/23 10:40:27;;;;;;;15.10;0.40;;;27.40;99.90;;;;;;4995229;28;20049;-70
2022/08/23 10:42:58;;;;;;;0.00;0.00;;;27.50;99.90;;;;;;5005474;28;20058;-70
2022/08/23 10:45:29;;;;;;;0.17;0.17;;;27.60;99.90;;;;;;5010631;28;20042;-70
2022/08/23 10:48:14;;;;;;;0.38;0.38;;;27.50;99.90;;;;;;4995933;28;20054;-71
2022/08/23 10:50:46;;;;;;;0.17;0.17;;;27.50;99.90;;;;;;4994763;28;20053;-70
2022/08/23 10:53:15;;;;;;;0.00;0.00;;;27.60;99.90;;;;;;5010248;28;20058;-71
2022/08/23 10:56:01;;;;;;;0.38;0.38;;;27.70;99.90;;;;;;5003763;28;20093;-70
2022/08/23 10:58:51;;;;;;;0.20;0.20;;;27.80;99.90;;;;;;4990111;28;20445;-70
2022/08/23 11:01:49;;;;;;;0.70;0.70;;;27.50;99.90;;;;;;4988043;28;20455;-71
2022/08/23 11:04:47;;;;;;;3.35;0.70;;;27.60;99.90;;;;;;4989935;28;20038;-71
2022/08/23 11:07:16;;;;;;;0.00;0.00;;;27.80;99.90;;;;;;4996748;28;20085;-71
2022/08/23 11:10:02;;;;;;;0.93;0.93;;;28.00;99.90;;;;;;5005019;28;21828;-71
2022/08/23 11:12:30;;;;;;;0.00;0.00;;;28.10;99.90;;;;;;5007977;28;20507;-71
2022/08/23 11:15:09;;;;;;;2.08;0.30;;;28.20;99.40;;;;;;4995870;28;20039;-71
2022/08/23 11:17:50;;;;;;;0.13;0.13;;;28.20;99.90;;;;;;4990330;28;20446;-71
2022/08/23 11:20:54;;;;;;;0.15;0.15;;;28.50;99.90;;;;;;4990600;28;20402;-71
2022/08/23 11:23:53;;;;;;;0.28;0.28;;;28.50;99.90;;;;;;4996673;28;20046;-71
2022/08/23 11:26:22;;;;;;;0.10;0.10;;;28.60;99.90;;;;;;4988447;28;20097;-71
2022/08/23 11:28:50;;;;;;;0.20;0.20;;;28.50;99.90;;;;;;4991880;28;20065;-71
2022/08/23 11:31:41;;;;;;;0.70;0.45;;;28.60;99.90;;;;;;4990126;28;20050;-71
2022/08/23 11:34:52;;;;;;;0.63;0.63;;;28.50;99.90;;;;;;4992262;28;20125;-71
2022/08/23 11:37:18;;;;;;;1.15;0.30;;;28.40;99.50;;;;;;4970572;28;20077;-71
2022/08/23 11:39:58;;;;;;;0.32;0.20;;;28.50;99.60;;;;;;5004996;28;20065;-71
2022/08/23 11:42:36;;;;;;;0.20;0.20;;;28.60;99.90;;;;;;5002203;28;20046;-71
2022/08/23 11:45:18;;;;;;;0.00;0.00;;;28.60;99.20;;;;;;4988585;28;20046;-71
2022/08/23 11:47:44;;;;;;;0.10;0.10;;;28.70;99.90;;;;;;5007512;28;20060;-71
2022/08/23 11:50:37;;;;;;;0.40;0.32;;;29.10;99.90;;;;;;4997350;28;20141;-71
2022/08/23 11:53:08;;;;;;;1.00;0.73;;;29.00;99.50;;;;;;4989352;28;20169;-71
2022/08/23 11:55:41;;;;;;;0.00;0.00;;;28.80;99.40;;;;;;4989742;28;20049;-71
2022/08/23 11:58:32;;;;;;;0.45;0.10;;;29.30;99.00;;;;;;4986752;28;20196;-71
2022/08/23 12:01:07;;;;;;;0.28;0.28;;;29.30;98.90;;;;;;4999295;28;20050;-71
2022/08/23 12:04:13;;;;;;;0.10;0.10;;;29.60;99.90;;;;;;4986627;28;20589;-71
2022/08/23 12:07:00;;;;;;;0.20;0.20;;;29.70;99.90;;;;;;4992793;28;20057;-71
2022/08/23 12:09:26;;;;;;;0.22;0.08;;;29.50;99.60;;;;;;5001566;28;20103;-71
2022/08/23 12:11:54;;;;;;;0.50;0.43;;;29.90;99.90;;;;;;5000901;28;20731;-72
2022/08/23 12:14:38;;;;;;;0.00;0.00;;;30.10;98.60;;;;;;4988021;28;20082;-71
2022/08/23 12:17:27;;;;;;;0.10;0.10;;;30.10;98.70;;;;;;4988079;28;20131;-71
2022/08/23 12:19:58;;;;;;;0.20;0.20;;;29.90;99.00;;;;;;4987454;28;20050;-71
2022/08/23 12:22:50;;;;;;;0.93;0.57;;;29.70;98.10;;;;;;4995200;28;20165;-71
2022/08/23 12:25:19;;;;;;;0.38;0.38;;;29.90;98.30;;;;;;4997444;28;20054;-71
2022/08/23 12:27:51;;;;;;;0.10;0.10;;;30.00;98.20;;;;;;5008568;28;20049;-71
2022/08/23 12:30:21;;;;;;;0.10;0.10;;;30.00;97.40;;;;;;5007291;28;20050;-71
2022/08/23 12:33:20;;;;;;;3.40;0.55;;;30.20;98.20;;;;;;5003734;28;20053;-71
2022/08/23 12:36:04;;;;;;;0.55;0.55;;;30.40;97.80;;;;;;4989386;28;20042;-71
2022/08/23 12:38:46;;;;;;;0.15;0.10;;;30.60;97.40;;;;;;5005995;28;20034;-72
2022/08/23 12:41:16;;;;;;;0.52;0.40;;;30.70;97.70;;;;;;5002475;28;20053;-71
2022/08/23 12:44:00;;;;;;;6.30;1.08;;;30.80;96.50;;;;;;4987967;28;20166;-71
2022/08/23 12:46:41;;;;;;;0.00;0.00;;;30.90;96.90;;;;;;4992865;28;20502;-72
2022/08/23 12:49:09;;;;;;;0.10;0.10;;;31.00;96.20;;;;;;4996737;28;20046;-72
2022/08/23 12:51:49;;;;;;;0.00;0.00;;;31.10;96.40;;;;;;4988504;28;20042;-71
2022/08/23 12:54:18;;;;;;;0.00;0.00;;;31.00;96.20;;;;;;5003237;28;20042;-71
2022/08/23 12:56:55;;;;;;;0.75;0.75;;;31.30;97.50;;;;;;5012602;28;20057;-71
2022/08/23 12:59:37;;;;;;;0.00;0.00;;;31.50;96.40;;;;;;4992404;28;20133;-71
2022/08/23 13:02:11;;;;;;;0.47;0.13;;;31.90;97.40;;;;;;4992014;28;20108;-71
2022/08/23 13:04:38;;;;;;;0.10;0.10;;;31.80;95.60;;;;;;4992841;28;20046;-71
2022/08/23 13:07:07;;;;;;;0.00;0.00;;;31.90;95.90;;;;;;4990458;28;20065;-72
2022/08/23 13:09:36;;;;;;;0.35;0.35;;;32.10;95.20;;;;;;4991979;28;20046;-71
2022/08/23 13:12:05;;;;;;;0.15;0.15;;;32.10;95.30;;;;;;4992516;28;20569;-71
2022/08/23 13:14:30;;;;;;;0.32;0.32;;;31.90;95.70;;;;;;4991476;28;20053;-71
2022/08/23 13:16:58;;;;;;;0.10;0.00;;;32.00;95.30;;;;;;4992173;28;20538;-71